Time;durP1;ratioP1;P1;durP2;ratioP2;P2;SDS_P1;SDS_P2;PMS_P1;PMS_P2;Temp;Humidity;BMP_temperature;BMP_pressure;BME280_temperature;BME280_humidity;BME280_pressure;Samples;Min_cycle;Max_cycle;Signal;HPM_P1;HPM_P2
2021/12/29 00:00:27;;;;;;;6.65;3.60;;;;;;;5.45;74.79;91593.91;2074342;69;20156;-73
2021/12/29 00:02:55;;;;;;;7.32;3.40;;;;;;;5.67;74.05;91602.88;2073996;69;20147;-73
2021/12/29 00:05:22;;;;;;;8.73;3.05;;;;;;;5.76;73.82;91618.06;2074115;69;20251;-72
2021/12/29 00:07:48;;;;;;;6.18;2.50;;;;;;;5.82;73.23;91635.22;2074566;69;20144;-72
2021/12/29 00:10:15;;;;;;;3.60;2.25;;;;;;;5.89;73.10;91636.31;2073977;69;20232;-73
2021/12/29 00:12:46;;;;;;;3.13;1.70;;;;;;;5.94;72.36;91646.41;2074371;69;20502;-74
2021/12/29 00:15:14;;;;;;;3.88;2.05;;;;;;;5.60;73.95;91629.72;2071050;69;20152;-76
2021/12/29 00:17:42;;;;;;;1.35;0.90;;;;;;;5.60;73.51;91651.34;2071059;69;20514;-75
2021/12/29 00:20:09;;;;;;;7.07;3.90;;;;;;;5.58;74.09;91660.28;2074815;69;20582;-75
2021/12/29 00:22:35;;;;;;;5.50;4.22;;;;;;;5.83;73.58;91645.06;2074789;69;20644;-72
2021/12/29 00:25:01;;;;;;;4.32;3.30;;;;;;;5.65;73.66;91632.78;2070830;69;20140;-71
2021/12/29 00:27:26;;;;;;;5.25;3.13;;;;;;;5.93;72.99;91625.41;2074817;69;20676;-71
2021/12/29 00:29:52;;;;;;;6.32;3.65;;;;;;;5.75;73.20;91622.94;2074869;69;20522;-71
2021/12/29 00:32:37;;;;;;;4.30;2.40;;;;;;;5.88;72.77;91601.34;2074816;69;20158;-72
2021/12/29 00:35:41;;;;;;;3.17;2.20;;;;;;;6.03;72.54;91589.69;2059022;69;20252;-71
2021/12/29 00:38:26;;;;;;;2.33;1.60;;;;;;;6.04;72.12;91593.94;2073722;69;20235;-71
2021/12/29 00:41:27;;;;;;;5.90;3.05;;;;;;;5.70;72.97;91582.16;2063854;69;20188;-75
2021/12/29 00:44:11;;;;;;;4.25;2.78;;;;;;;5.80;73.38;91605.09;2073843;69;20292;-72
2021/12/29 00:47:00;;;;;;;3.55;2.30;;;;;;;5.93;72.87;91619.81;2073458;69;20275;-76
2021/12/29 00:49:37;;;;;;;4.07;2.50;;;;;;;5.80;73.68;91627.44;2074748;69;20294;-76
2021/12/29 00:52:07;;;;;;;3.65;2.08;;;;;;;6.01;72.37;91623.84;2074241;69;20670;-72
2021/12/29 00:54:35;;;;;;;3.60;2.38;;;;;;;5.75;73.18;91625.00;2074492;69;20213;-76
2021/12/29 00:57:01;;;;;;;4.90;2.80;;;;;;;5.65;73.54;91629.97;2075012;69;20235;-72
2021/12/29 00:59:27;;;;;;;5.65;3.17;;;;;;;5.74;73.63;91629.13;2074196;69;20143;-70
2021/12/29 01:01:53;;;;;;;5.85;2.67;;;;;;;5.78;73.26;91630.13;2075113;69;20537;-71
2021/12/29 01:04:22;;;;;;;4.28;2.25;;;;;;;5.94;72.46;91630.38;2071151;69;20184;-72
2021/12/29 01:06:48;;;;;;;4.97;2.38;;;;;;;5.96;72.31;91638.91;2074919;69;20227;-71
2021/12/29 01:09:14;;;;;;;2.47;1.30;;;;;;;6.00;72.96;91647.53;2074826;69;20154;-71
2021/12/29 01:11:41;;;;;;;2.80;1.75;;;;;;;5.95;71.93;91661.84;2074736;69;20528;-71
2021/12/29 01:14:08;;;;;;;5.55;2.30;;;;;;;5.96;72.22;91672.41;2071305;69;20164;-71
2021/12/29 01:16:36;;;;;;;5.38;1.20;;;;;;;5.71;73.33;91669.44;2074822;69;20154;-73
2021/12/29 01:19:20;;;;;;;9.80;2.65;;;;;;;5.85;73.39;91687.78;2074624;69;20205;-71
2021/12/29 01:21:53;;;;;;;4.80;1.15;;;;;;;6.01;72.21;91704.84;2074280;69;20183;-72
2021/12/29 01:24:26;;;;;;;2.22;0.77;;;;;;;6.18;71.28;91706.53;2074625;69;20144;-72
2021/12/29 01:26:55;;;;;;;1.20;0.60;;;;;;;6.09;71.36;91710.19;2074559;69;20155;-73
2021/12/29 01:29:28;;;;;;;1.58;0.70;;;;;;;6.08;71.60;91722.69;2074770;69;20132;-72
2021/12/29 01:31:57;;;;;;;0.75;0.50;;;;;;;6.39;69.69;91727.34;2074443;69;20148;-75
2021/12/29 01:34:23;;;;;;;0.82;0.60;;;;;;;6.36;70.72;91730.00;2071025;69;20132;-77
2021/12/29 01:36:49;;;;;;;0.73;0.50;;;;;;;6.40;70.75;91737.19;2074491;69;20140;-77
2021/12/29 01:39:17;;;;;;;1.27;0.60;;;;;;;6.37;70.12;91714.00;2074755;69;20144;-72
2021/12/29 01:41:44;;;;;;;1.10;0.60;;;;;;;6.46;70.42;91701.19;2071313;69;20236;-73
2021/12/29 01:44:12;;;;;;;4.43;1.08;;;;;;;6.54;69.91;91704.47;2074483;69;20151;-73
2021/12/29 01:46:38;;;;;;;3.10;0.90;;;;;;;6.52;70.23;91712.75;2074660;69;20167;-73
2021/12/29 01:49:04;;;;;;;1.05;0.60;;;;;;;6.40;70.95;91717.63;2074472;69;20734;-71
2021/12/29 01:51:30;;;;;;;1.15;0.55;;;;;;;6.39;70.54;91725.28;2074335;69;20139;-73
2021/12/29 01:54:04;;;;;;;1.40;0.50;;;;;;;6.28;70.60;91706.44;2074170;69;20148;-72
2021/12/29 01:56:31;;;;;;;0.98;0.50;;;;;;;6.37;70.48;91727.97;2074498;69;20152;-71
2021/12/29 01:58:56;;;;;;;1.10;0.80;;;;;;;6.30;70.75;91738.03;2074523;69;20685;-73
2021/12/29 02:01:23;;;;;;;2.05;0.77;;;;;;;6.31;71.08;91731.09;2074130;69;20243;-72
2021/12/29 02:03:50;;;;;;;1.35;0.70;;;;;;;6.44;71.02;91731.84;2074198;69;20160;-72
2021/12/29 02:06:16;;;;;;;0.98;0.70;;;;;;;6.32;71.14;91737.41;2074464;69;20194;-72
2021/12/29 02:08:41;;;;;;;1.00;0.65;;;;;;;6.50;70.69;91730.13;2074370;69;20280;-72
2021/12/29 02:11:08;;;;;;;1.30;0.90;;;;;;;6.47;70.66;91736.22;2074329;69;20163;-71
2021/12/29 02:13:33;;;;;;;1.27;0.80;;;;;;;6.65;70.35;91756.16;2074312;69;20156;-71
2021/12/29 02:15:59;;;;;;;1.35;0.80;;;;;;;6.52;71.16;91763.09;2070749;69;20148;-72
2021/12/29 02:18:25;;;;;;;1.30;1.00;;;;;;;6.39;71.73;91758.09;2074320;69;20609;-71
2021/12/29 02:20:55;;;;;;;1.58;0.80;;;;;;;6.36;71.54;91754.44;2074478;69;20209;-71
2021/12/29 02:23:45;;;;;;;1.00;0.90;;;;;;;6.19;71.90;91757.59;2074276;69;20235;-73
2021/12/29 02:26:13;;;;;;;1.40;1.30;;;;;;;6.23;72.21;91769.75;2074575;69;20159;-73
2021/12/29 02:28:41;;;;;;;2.03;1.52;;;;;;;6.27;72.82;91756.00;2074592;69;20148;-72
2021/12/29 02:31:07;;;;;;;3.00;2.00;;;;;;;6.48;71.48;91762.84;2074503;69;20353;-72
2021/12/29 02:33:35;;;;;;;3.72;2.30;;;;;;;6.51;71.13;91744.84;2075213;69;20147;-72
2021/12/29 02:36:04;;;;;;;2.30;1.60;;;;;;;6.28;72.60;91745.59;2074546;69;20140;-75
2021/12/29 02:38:41;;;;;;;2.08;1.38;;;;;;;6.25;73.66;91752.38;2075053;69;20136;-75
2021/12/29 02:41:08;;;;;;;1.42;0.88;;;;;;;6.43;72.36;91767.47;2075172;69;20625;-72
2021/12/29 02:43:37;;;;;;;1.65;0.50;;;;;;;6.51;71.63;91773.56;2074552;69;20778;-73
2021/12/29 02:46:11;;;;;;;1.00;0.50;;;;;;;6.52;72.08;91791.78;2075126;69;20156;-71
2021/12/29 02:48:46;;;;;;;0.52;0.38;;;;;;;6.27;72.89;91797.22;2075025;69;20170;-75
2021/12/29 02:51:12;;;;;;;1.02;0.47;;;;;;;6.37;72.47;91797.84;2074665;69;20623;-72
2021/12/29 02:53:38;;;;;;;2.65;0.68;;;;;;;6.17;73.73;91796.59;2074888;69;20307;-72
2021/12/29 02:56:04;;;;;;;0.82;0.60;;;;;;;5.99;74.90;91791.31;2075241;69;20187;-72
2021/12/29 02:58:33;;;;;;;1.73;1.00;;;;;;;6.44;72.77;91810.13;2075075;69;20495;-71
2021/12/29 03:01:06;;;;;;;1.67;1.00;;;;;;;6.57;72.25;91813.06;2074981;69;20598;-72
2021/12/29 03:03:33;;;;;;;1.10;1.00;;;;;;;6.68;72.21;91817.19;2074706;69;20262;-72
2021/12/29 03:05:59;;;;;;;0.57;0.52;;;;;;;6.61;72.41;91827.28;2074334;69;20144;-72
2021/12/29 03:08:26;;;;;;;1.10;1.00;;;;;;;6.68;71.66;91810.88;2074755;69;20148;-73
2021/12/29 03:10:53;;;;;;;0.98;0.85;;;;;;;6.60;71.98;91814.66;2074657;69;20673;-71
2021/12/29 03:13:21;;;;;;;1.08;0.98;;;;;;;6.61;71.45;91818.16;2074710;69;20148;-73
2021/12/29 03:15:47;;;;;;;2.83;1.77;;;;;;;6.52;72.06;91810.63;2074621;69;20167;-73
2021/12/29 03:18:13;;;;;;;1.95;1.30;;;;;;;6.01;73.65;91822.19;2074528;69;20305;-72
2021/12/29 03:20:39;;;;;;;4.57;1.60;;;;;;;6.31;73.42;91828.94;2074846;69;20227;-74
2021/12/29 03:23:05;;;;;;;2.85;1.48;;;;;;;6.38;72.84;91818.16;2075085;69;20590;-73
2021/12/29 03:25:31;;;;;;;2.92;1.27;;;;;;;6.56;72.05;91827.66;2074780;69;20167;-73
2021/12/29 03:27:59;;;;;;;2.05;1.20;;;;;;;6.55;72.59;91824.13;2071581;69;20591;-73
2021/12/29 03:30:28;;;;;;;0.80;0.73;;;;;;;6.45;73.48;91828.34;2074920;69;20151;-72
2021/12/29 03:33:03;;;;;;;1.27;0.70;;;;;;;6.53;72.76;91842.84;2074849;69;20513;-71
2021/12/29 03:35:35;;;;;;;1.25;1.05;;;;;;;6.15;73.92;91841.19;2074591;69;20253;-73
2021/12/29 03:38:03;;;;;;;1.60;1.20;;;;;;;5.60;76.05;91855.88;2074987;69;20285;-72
2021/12/29 03:40:29;;;;;;;2.15;1.10;;;;;;;6.11;73.54;91858.41;2070671;69;20140;-73
2021/12/29 03:42:56;;;;;;;1.77;1.20;;;;;;;6.29;72.95;91856.03;2074765;69;20237;-71
2021/12/29 03:45:23;;;;;;;2.67;1.30;;;;;;;6.41;72.18;91864.44;2074716;69;20148;-71
2021/12/29 03:47:49;;;;;;;1.77;1.30;;;;;;;6.32;72.99;91871.59;2071238;69;20679;-71
2021/12/29 03:50:14;;;;;;;1.83;1.30;;;;;;;6.37;72.84;91870.53;2074700;69;20167;-71
2021/12/29 03:52:40;;;;;;;3.20;1.67;;;;;;;6.14;73.30;91870.44;2071380;69;20159;-72
2021/12/29 03:55:07;;;;;;;4.05;1.90;;;;;;;6.09;74.38;91884.19;2074225;69;20140;-72
2021/12/29 03:57:34;;;;;;;2.47;1.60;;;;;;;6.22;73.49;91873.75;2071286;69;20191;-75
2021/12/29 03:59:59;;;;;;;3.00;1.50;;;;;;;6.33;72.64;91879.38;2074673;69;20179;-77
2021/12/29 04:02:25;;;;;;;2.67;1.30;;;;;;;6.36;72.62;91878.16;2074619;69;20139;-71
2021/12/29 04:04:51;;;;;;;1.77;1.20;;;;;;;5.90;74.25;91878.72;2074515;69;20609;-73
2021/12/29 04:07:16;;;;;;;1.90;0.80;;;;;;;5.81;74.79;91857.16;2075081;69;20594;-73
2021/12/29 04:09:42;;;;;;;1.13;0.90;;;;;;;6.04;73.63;91873.31;2075171;69;20156;-73
2021/12/29 04:12:08;;;;;;;1.25;0.75;;;;;;;6.23;73.16;91870.38;2075208;69;20156;-73
2021/12/29 04:14:34;;;;;;;1.77;1.10;;;;;;;6.14;74.28;91848.09;2075199;69;20645;-72
2021/12/29 04:17:08;;;;;;;2.47;1.65;;;;;;;6.39;72.59;91867.13;2075343;69;20144;-73
2021/12/29 04:22:19;;;;;;;2.13;0.80;;;;;;;6.37;73.29;91859.34;2075205;69;20208;-73
2021/12/29 04:24:45;;;;;;;2.35;1.50;;;;;;;6.14;73.56;91873.22;2075151;69;20586;-73
2021/12/29 04:27:11;;;;;;;4.78;2.30;;;;;;;5.98;74.01;91872.94;2075387;69;20152;-77
2021/12/29 04:29:36;;;;;;;4.85;1.85;;;;;;;6.16;73.23;91865.72;2071871;69;20351;-76
2021/12/29 04:32:02;;;;;;;3.70;2.20;;;;;;;6.31;72.63;91884.84;2075270;69;20155;-77
2021/12/29 04:34:28;;;;;;;4.93;2.70;;;;;;;6.04;73.54;91885.22;2071726;69;20285;-77
2021/12/29 04:36:53;;;;;;;2.55;1.85;;;;;;;6.24;72.42;91885.06;2071797;69;20585;-75
2021/12/29 04:39:19;;;;;;;2.55;2.00;;;;;;;5.98;73.61;91900.88;2075172;69;20135;-74
2021/12/29 04:41:44;;;;;;;3.90;1.90;;;;;;;5.63;74.81;91909.78;2075226;69;20146;-73
2021/12/29 04:44:10;;;;;;;3.47;1.90;;;;;;;5.70;74.90;91906.06;2075137;69;20151;-73
2021/12/29 04:46:39;;;;;;;1.45;1.10;;;;;;;5.78;75.44;91901.00;2075121;69;20132;-75
2021/12/29 04:49:09;;;;;;;2.20;1.60;;;;;;;6.12;73.31;91910.16;2075115;69;20594;-74
2021/12/29 04:51:36;;;;;;;2.33;1.30;;;;;;;6.11;73.04;91914.31;2074977;69;20147;-72
2021/12/29 04:54:05;;;;;;;0.88;0.70;;;;;;;5.72;74.58;91908.97;2075170;69;20611;-72
2021/12/29 04:56:32;;;;;;;0.80;0.60;;;;;;;5.59;75.81;91913.06;2075096;69;20682;-72
2021/12/29 04:58:57;;;;;;;1.08;0.47;;;;;;;5.83;74.83;91897.16;2075156;69;20199;-73
2021/12/29 05:01:23;;;;;;;1.45;0.60;;;;;;;5.94;74.15;91900.63;2075225;69;20574;-73
2021/12/29 05:03:49;;;;;;;0.95;0.60;;;;;;;5.99;74.40;91893.97;2075170;69;20151;-75
2021/12/29 05:08:40;;;;;;;1.73;0.52;;;;;;;6.14;73.12;91895.59;2075149;69;20139;-75
2021/12/29 05:11:13;;;;;;;1.08;0.52;;;;;;;6.24;72.81;91888.59;2075099;69;20148;-73
2021/12/29 05:13:40;;;;;;;2.25;0.75;;;;;;;6.33;72.36;91882.19;2075188;69;20293;-74
2021/12/29 05:16:07;;;;;;;1.60;0.80;;;;;;;6.06;73.93;91887.44;2075251;69;20164;-73
2021/12/29 05:18:35;;;;;;;1.60;0.80;;;;;;;6.21;73.00;91900.97;2075069;69;20163;-73
2021/12/29 05:21:02;;;;;;;1.35;0.70;;;;;;;5.97;73.98;91911.34;2074942;69;20176;-73
2021/12/29 05:23:27;;;;;;;1.15;0.70;;;;;;;6.08;73.46;91918.28;2075250;69;20196;-73
2021/12/29 05:25:54;;;;;;;0.80;0.70;;;;;;;6.05;73.34;91922.31;2075042;69;20151;-73
2021/12/29 05:28:20;;;;;;;0.70;0.70;;;;;;;6.06;73.19;91926.56;2075157;69;20609;-73
2021/12/29 05:30:47;;;;;;;1.13;1.02;;;;;;;5.93;72.99;91930.63;2075013;69;20524;-73
2021/12/29 05:33:14;;;;;;;11.63;4.10;;;;;;;5.80;73.50;91936.72;2075116;69;20245;-73
2021/12/29 05:35:41;;;;;;;4.28;2.30;;;;;;;5.78;74.16;91944.97;2074900;69;20179;-77
2021/12/29 05:38:06;;;;;;;3.70;1.70;;;;;;;5.83;73.56;91936.25;2075069;69;20140;-74
2021/12/29 05:40:32;;;;;;;1.83;1.60;;;;;;;5.91;73.43;91944.44;2075064;69;20164;-73
2021/12/29 05:42:59;;;;;;;2.10;1.60;;;;;;;5.96;73.01;91948.25;2074991;69;20147;-72
2021/12/29 05:45:26;;;;;;;1.60;1.10;;;;;;;5.95;73.03;91947.50;2075092;69;20155;-73
2021/12/29 05:47:52;;;;;;;1.52;0.70;;;;;;;5.97;72.43;91949.72;2074921;69;20664;-73
2021/12/29 05:50:21;;;;;;;1.05;0.77;;;;;;;6.06;72.08;91946.84;2074886;69;20176;-73
2021/12/29 05:52:48;;;;;;;1.77;0.80;;;;;;;5.92;73.21;91956.38;2075006;69;20167;-73
2021/12/29 05:55:15;;;;;;;1.00;0.73;;;;;;;5.95;72.82;91958.69;2074970;69;20658;-73
2021/12/29 05:57:41;;;;;;;0.98;0.90;;;;;;;5.93;72.71;91944.59;2074993;69;20487;-73
2021/12/29 06:00:10;;;;;;;2.50;1.13;;;;;;;6.00;72.50;91949.25;2074965;69;20183;-73
2021/12/29 06:02:36;;;;;;;3.42;1.13;;;;;;;5.97;72.28;91946.91;2074993;69;20503;-73
2021/12/29 06:05:03;;;;;;;2.08;1.20;;;;;;;6.01;72.05;91950.72;2075381;69;20155;-72
2021/12/29 06:07:28;;;;;;;1.55;1.17;;;;;;;5.84;73.24;91956.53;2075423;69;20163;-72
2021/12/29 06:09:54;;;;;;;1.20;1.10;;;;;;;5.95;72.43;91972.66;2075456;69;20151;-77
2021/12/29 06:12:20;;;;;;;2.17;1.17;;;;;;;5.88;72.87;91973.56;2075409;69;20176;-74
2021/12/29 06:14:47;;;;;;;2.15;1.00;;;;;;;5.96;72.11;91971.34;2075424;69;20140;-73
2021/12/29 06:17:14;;;;;;;1.77;0.80;;;;;;;5.96;72.37;91970.59;2075445;69;20243;-75
2021/12/29 06:19:40;;;;;;;1.08;0.88;;;;;;;5.85;73.28;91981.06;2075370;69;20578;-73
2021/12/29 06:22:09;;;;;;;0.93;0.63;;;;;;;5.97;72.79;91978.38;2075562;69;20136;-73
2021/12/29 06:24:35;;;;;;;2.28;0.80;;;;;;;6.03;72.61;91978.78;2075403;69;20167;-75
2021/12/29 06:27:00;;;;;;;2.60;1.10;;;;;;;5.79;73.90;91989.06;2075497;69;20152;-73
2021/12/29 06:29:26;;;;;;;2.15;1.30;;;;;;;5.83;73.21;91986.53;2075411;69;20151;-74
2021/12/29 06:31:52;;;;;;;6.57;3.75;;;;;;;5.77;73.46;91996.56;2075462;69;20598;-73
2021/12/29 06:34:18;;;;;;;5.30;3.00;;;;;;;5.79;73.05;91985.53;2075496;69;20176;-73
2021/12/29 06:36:43;;;;;;;2.65;2.10;;;;;;;5.73;73.54;91987.94;2075462;69;20136;-73
2021/12/29 06:39:09;;;;;;;2.03;1.60;;;;;;;5.86;72.92;92004.91;2075387;69;20148;-72
2021/12/29 06:41:35;;;;;;;0.90;0.70;;;;;;;5.84;73.22;92010.34;2075807;69;20132;-77
2021/12/29 06:44:02;;;;;;;0.93;0.70;;;;;;;5.83;73.68;92011.66;2075455;69;20151;-76
2021/12/29 06:46:27;;;;;;;0.93;0.80;;;;;;;5.91;72.72;92005.16;2075477;69;20168;-76
2021/12/29 06:48:53;;;;;;;2.17;1.48;;;;;;;5.75;73.52;92008.31;2075342;69;20139;-74
2021/12/29 06:51:18;;;;;;;11.50;8.82;;;;;;;5.45;74.65;92037.72;2075240;69;20142;-73
2021/12/29 06:53:44;;;;;;;9.50;3.10;;;;;;;5.70;73.40;92037.31;2075397;69;20143;-74
2021/12/29 06:56:10;;;;;;;3.28;2.13;;;;;;;5.76;73.19;92037.72;2075396;69;20164;-73
2021/12/29 06:58:36;;;;;;;4.05;2.30;;;;;;;5.70;73.22;92028.94;2075348;69;20140;-73
2021/12/29 07:01:03;;;;;;;8.25;2.28;;;;;;;5.46;74.45;92038.47;2075574;69;20243;-73
2021/12/29 07:03:29;;;;;;;4.32;2.80;;;;;;;5.70;73.75;92031.72;2075230;69;20176;-75
2021/12/29 07:05:54;;;;;;;3.65;2.30;;;;;;;5.66;73.46;92034.25;2075186;69;20227;-73
2021/12/29 07:08:21;;;;;;;5.30;2.33;;;;;;;5.67;73.29;92038.50;2075400;69;20167;-72
2021/12/29 07:10:47;;;;;;;4.63;2.45;;;;;;;5.77;72.80;92036.41;2075314;69;20144;-73
2021/12/29 07:13:13;;;;;;;3.85;1.60;;;;;;;5.57;73.76;92046.19;2075390;69;20175;-73
2021/12/29 07:15:38;;;;;;;4.00;1.60;;;;;;;5.64;73.40;92041.78;2071912;69;20298;-74
2021/12/29 07:18:04;;;;;;;2.15;1.30;;;;;;;5.63;73.86;92043.81;2075452;69;20136;-73
2021/12/29 07:20:30;;;;;;;2.25;1.30;;;;;;;5.82;72.85;92048.59;2075201;69;20176;-76
2021/12/29 07:22:56;;;;;;;4.25;2.15;;;;;;;5.81;72.93;92053.41;2075305;69;20182;-72
2021/12/29 07:25:24;;;;;;;8.13;2.83;;;;;;;5.27;74.10;92059.53;2075273;69;20587;-72
2021/12/29 07:27:51;;;;;;;4.28;2.30;;;;;;;5.67;73.03;92060.84;2075357;69;20599;-75
2021/12/29 07:30:17;;;;;;;2.80;1.77;;;;;;;5.66;73.11;92061.44;2075297;69;20174;-76
2021/12/29 07:32:43;;;;;;;4.90;1.98;;;;;;;5.59;73.73;92063.09;2075296;69;20140;-77
2021/12/29 07:35:09;;;;;;;4.95;2.28;;;;;;;5.70;73.47;92072.88;2075227;69;20156;-78
2021/12/29 07:37:34;;;;;;;11.43;6.38;;;;;;;5.01;75.25;92080.72;2075302;69;20144;-77
2021/12/29 07:40:05;;;;;;;11.90;5.30;;;;;;;5.35;75.23;92090.78;2071955;69;20135;-77
2021/12/29 07:42:32;;;;;;;9.63;4.60;;;;;;;5.58;74.00;92081.88;2072018;69;20156;-71
2021/12/29 07:44:58;;;;;;;8.25;4.53;;;;;;;5.65;73.91;92083.06;2071872;69;20560;-74
2021/12/29 07:47:24;;;;;;;5.53;3.63;;;;;;;5.74;73.26;92087.13;2075207;69;20163;-74
2021/12/29 07:49:49;;;;;;;6.25;3.40;;;;;;;5.77;73.26;92092.28;2075081;69;20140;-76
2021/12/29 07:52:15;;;;;;;6.15;3.63;;;;;;;5.96;71.67;92094.25;2075497;69;20147;-75
2021/12/29 07:54:41;;;;;;;7.07;3.92;;;;;;;6.05;71.70;92095.53;2075212;69;20191;-73
2021/12/29 07:57:06;;;;;;;4.88;3.08;;;;;;;6.03;71.91;92093.31;2075182;69;20491;-75
2021/12/29 07:59:32;;;;;;;7.32;4.07;;;;;;;5.72;73.44;92093.28;2075380;69;20160;-72
2021/12/29 08:01:58;;;;;;;6.78;3.60;;;;;;;5.95;72.29;92101.16;2075154;69;20168;-75
2021/12/29 08:04:24;;;;;;;7.18;3.63;;;;;;;5.92;72.17;92093.25;2074973;69;20152;-74
2021/12/29 08:06:51;;;;;;;7.50;3.78;;;;;;;5.92;72.48;92090.47;2075076;69;20518;-74
2021/12/29 08:09:17;;;;;;;5.88;3.40;;;;;;;5.97;72.51;92090.13;2074916;69;20153;-76
2021/12/29 08:11:42;;;;;;;4.22;2.70;;;;;;;6.05;72.52;92101.13;2071666;69;20204;-72
2021/12/29 08:14:09;;;;;;;5.20;2.15;;;;;;;6.13;72.19;92092.53;2075082;69;20483;-72
2021/12/29 08:16:35;;;;;;;7.88;4.82;;;;;;;5.41;74.29;92101.66;2075175;69;20143;-74
2021/12/29 08:19:00;;;;;;;8.45;4.68;;;;;;;5.72;73.53;92100.94;2075058;69;20193;-75
2021/12/29 08:21:26;;;;;;;8.13;4.80;;;;;;;5.90;72.61;92116.16;2074973;69;20144;-73
2021/12/29 08:23:52;;;;;;;8.13;4.78;;;;;;;6.05;71.88;92112.31;2075408;69;20494;-74
2021/12/29 08:26:20;;;;;;;6.60;3.67;;;;;;;6.17;71.85;92117.97;2074988;69;20172;-74
2021/12/29 08:28:46;;;;;;;13.23;7.25;;;;;;;5.71;73.76;92116.25;2075096;69;20193;-74
2021/12/29 08:31:12;;;;;;;16.02;8.30;;;;;;;5.76;73.35;92099.16;2075175;69;20156;-74
2021/12/29 08:33:38;;;;;;;18.65;10.20;;;;;;;5.43;74.52;92115.00;2075347;69;20622;-78
2021/12/29 08:36:07;;;;;;;12.52;7.82;;;;;;;5.82;72.89;92105.19;2075062;69;20252;-75
2021/12/29 08:38:34;;;;;;;15.38;9.50;;;;;;;5.94;72.22;92110.88;2075142;69;20140;-74
2021/12/29 08:41:00;;;;;;;14.27;9.05;;;;;;;6.03;72.40;92120.53;2075257;69;20155;-78
2021/12/29 08:43:25;;;;;;;13.77;7.95;;;;;;;6.08;71.77;92109.03;2075155;69;20155;-73
2021/12/29 08:45:51;;;;;;;9.55;6.15;;;;;;;6.20;71.85;92114.72;2075125;69;20148;-72
2021/12/29 08:48:17;;;;;;;6.03;2.88;;;;;;;6.33;72.17;92119.78;2075104;69;20205;-72
2021/12/29 08:50:43;;;;;;;55.28;25.17;;;;;;;5.80;72.81;92119.00;2075014;69;20234;-77
2021/12/29 08:53:10;;;;;;;50.03;19.92;;;;;;;6.00;72.59;92132.91;2075345;69;20616;-72
2021/12/29 08:55:38;;;;;;;41.25;19.90;;;;;;;6.35;71.93;92119.19;2075054;69;20142;-73
2021/12/29 08:58:06;;;;;;;44.10;17.25;;;;;;;6.47;71.49;92119.28;2075098;69;20140;-74
2021/12/29 09:00:33;;;;;;;26.40;11.23;;;;;;;6.65;71.10;92117.69;2071778;69;20144;-73
2021/12/29 09:02:58;;;;;;;21.33;9.80;;;;;;;6.77;71.19;92117.72;2074935;69;20602;-74
2021/12/29 09:05:24;;;;;;;18.98;8.95;;;;;;;7.32;71.64;92113.56;2074959;69;20185;-76
2021/12/29 09:07:50;;;;;;;9.95;4.80;;;;;;;7.25;69.58;92113.78;2075171;69;20140;-74
2021/12/29 09:10:18;;;;;;;24.58;10.88;;;;;;;7.03;69.87;92113.84;2075078;69;20192;-76
2021/12/29 09:12:47;;;;;;;22.60;10.93;;;;;;;7.00;70.27;92123.44;2071715;69;20144;-77
2021/12/29 09:15:14;;;;;;;21.67;9.02;;;;;;;7.34;69.46;92133.31;2075069;69;20144;-72
2021/12/29 09:17:39;;;;;;;23.02;11.23;;;;;;;7.49;68.82;92120.91;2075195;69;20139;-73
2021/12/29 09:20:13;;;;;;;24.83;11.43;;;;;;;7.75;68.40;92127.44;2075005;69;20144;-72
2021/12/29 09:22:39;;;;;;;14.13;7.25;;;;;;;7.68;67.75;92127.66;2075047;69;20588;-73
2021/12/29 09:25:05;;;;;;;12.05;6.88;;;;;;;7.47;67.79;92129.22;2074974;69;20129;-75
2021/12/29 09:27:31;;;;;;;15.80;8.23;;;;;;;7.62;68.25;92142.75;2074999;69;20235;-75
2021/12/29 09:29:58;;;;;;;20.50;10.82;;;;;;;7.78;67.55;92145.09;2075028;69;20216;-78
2021/12/29 09:32:24;;;;;;;15.80;8.43;;;;;;;7.96;67.51;92149.00;2074883;69;20159;-79
2021/12/29 09:34:50;;;;;;;14.70;8.32;;;;;;;8.20;67.48;92151.84;2071575;69;20144;-77
2021/12/29 09:37:16;;;;;;;12.82;7.00;;;;;;;7.95;67.29;92155.22;2074788;69;20526;-79
2021/12/29 09:39:41;;;;;;;11.32;6.60;;;;;;;7.95;66.61;92155.22;2075012;69;20156;-77
2021/12/29 09:42:07;;;;;;;12.93;6.28;;;;;;;8.26;66.45;92146.59;2075283;69;20199;-79
2021/12/29 09:44:33;;;;;;;13.05;5.95;;;;;;;8.40;65.72;92148.22;2075056;69;20160;-79
2021/12/29 09:46:59;;;;;;;7.38;4.28;;;;;;;8.04;65.69;92143.91;2075126;69;20163;-76
2021/12/29 09:49:25;;;;;;;9.00;4.20;;;;;;;8.18;65.36;92146.84;2075044;69;20144;-73
2021/12/29 09:51:51;;;;;;;8.93;3.88;;;;;;;8.46;64.43;92142.22;2075007;69;20271;-73
2021/12/29 09:54:17;;;;;;;7.68;4.38;;;;;;;8.72;63.59;92137.44;2075127;69;20144;-72
2021/12/29 09:56:43;;;;;;;5.00;3.10;;;;;;;8.78;63.73;92137.78;2071742;69;20151;-77
2021/12/29 09:59:08;;;;;;;10.65;6.22;;;;;;;8.59;64.06;92129.66;2075135;69;20140;-79
2021/12/29 10:01:34;;;;;;;12.55;6.28;;;;;;;8.59;63.39;92124.03;2075103;69;20571;-77
2021/12/29 10:04:00;;;;;;;10.13;5.63;;;;;;;8.90;63.05;92137.78;2075038;69;20220;-78
2021/12/29 10:06:25;;;;;;;8.73;4.90;;;;;;;9.08;63.49;92136.00;2074845;69;20148;-78
2021/12/29 10:08:52;;;;;;;8.43;4.97;;;;;;;9.08;62.70;92140.91;2074931;69;20237;-77
2021/12/29 10:11:26;;;;;;;7.75;3.95;;;;;;;8.94;62.65;92140.81;2074950;69;20155;-78
2021/12/29 10:13:52;;;;;;;5.78;3.45;;;;;;;8.82;62.92;92145.72;2075115;69;20144;-79
2021/12/29 10:16:24;;;;;;;4.63;3.30;;;;;;;8.70;62.22;92131.69;2074964;69;20502;-74
2021/12/29 10:18:57;;;;;;;6.55;4.40;;;;;;;8.71;61.64;92126.84;2074947;69;20511;-78
2021/12/29 10:21:26;;;;;;;8.07;4.82;;;;;;;8.86;61.37;92132.66;2074986;69;20140;-78
2021/12/29 10:23:54;;;;;;;11.40;5.97;;;;;;;8.74;62.06;92131.94;2074875;69;20155;-78
2021/12/29 10:26:22;;;;;;;10.10;6.53;;;;;;;9.42;61.67;92136.47;2074874;69;20243;-73
2021/12/29 10:28:51;;;;;;;10.40;6.40;;;;;;;9.87;60.99;92139.66;2074855;69;20240;-72
2021/12/29 10:31:23;;;;;;;7.15;4.85;;;;;;;10.06;60.58;92135.75;2074889;69;20144;-72
2021/12/29 10:33:52;;;;;;;8.05;3.75;;;;;;;9.88;60.01;92127.06;2071639;69;20165;-72
2021/12/29 10:36:23;;;;;;;7.35;3.80;;;;;;;9.90;59.32;92138.44;2074783;69;20251;-77
2021/12/29 10:39:11;;;;;;;12.80;7.40;;;;;;;9.71;60.00;92138.03;2074912;69;20160;-77
2021/12/29 10:41:55;;;;;;;11.98;6.80;;;;;;;9.83;60.48;92147.88;2074652;69;20198;-74
2021/12/29 10:44:46;;;;;;;11.10;7.32;;;;;;;9.75;60.43;92149.50;2074833;69;20171;-73
2021/12/29 10:47:21;;;;;;;13.45;6.90;;;;;;;9.64;60.94;92143.34;2072213;69;20579;-73
2021/12/29 10:49:50;;;;;;;11.20;5.03;;;;;;;9.71;59.55;92152.81;2075046;69;20155;-72
2021/12/29 10:52:26;;;;;;;5.28;2.90;;;;;;;9.77;58.61;92150.38;2075529;69;20167;-72
2021/12/29 10:54:52;;;;;;;6.88;3.72;;;;;;;9.57;59.60;92143.63;2075360;69;20280;-73
2021/12/29 10:57:18;;;;;;;9.73;4.80;;;;;;;9.85;58.71;92155.69;2075433;69;20255;-80
2021/12/29 10:59:43;;;;;;;7.25;4.30;;;;;;;10.01;58.45;92150.22;2072035;69;20147;-78
2021/12/29 11:02:10;;;;;;;7.05;2.95;;;;;;;10.04;58.56;92149.00;2075470;69;20140;-78
2021/12/29 11:04:36;;;;;;;3.67;2.10;;;;;;;10.06;57.51;92144.19;2075191;69;20490;-79
2021/12/29 11:07:04;;;;;;;3.20;2.00;;;;;;;9.87;57.08;92147.38;2069203;69;20144;-80
2021/12/29 11:09:35;;;;;;;6.53;4.25;;;;;;;8.86;60.64;92151.56;2075323;69;20139;-78
2021/12/29 11:12:12;;;;;;;7.90;4.88;;;;;;;9.04;60.96;92157.50;2075380;69;20144;-78
2021/12/29 11:14:42;;;;;;;12.65;8.13;;;;;;;9.44;60.65;92153.47;2075455;69;20175;-79
2021/12/29 11:17:21;;;;;;;10.40;6.95;;;;;;;9.75;59.96;92155.84;2072243;69;20237;-74
2021/12/29 11:19:56;;;;;;;9.07;5.45;;;;;;;9.81;59.88;92163.91;2071831;69;20164;-75
2021/12/29 11:22:26;;;;;;;6.50;4.55;;;;;;;9.87;59.89;92153.00;2075461;69;20626;-76
2021/12/29 11:24:56;;;;;;;7.90;5.15;;;;;;;9.92;59.18;92138.53;2075422;69;20140;-74
2021/12/29 11:27:23;;;;;;;13.35;7.90;;;;;;;9.52;59.87;92141.94;2075315;69;20148;-77
2021/12/29 11:30:02;;;;;;;13.48;8.80;;;;;;;9.94;59.72;92143.53;2071794;69;20179;-75
2021/12/29 11:32:44;;;;;;;25.98;14.25;;;;;;;9.97;59.40;92144.38;2075215;69;20167;-76
2021/12/29 11:35:23;;;;;;;9.90;6.30;;;;;;;9.80;58.90;92146.28;2075200;69;20152;-77
2021/12/29 11:37:54;;;;;;;11.20;7.47;;;;;;;9.88;60.36;92146.00;2075463;69;20171;-74
2021/12/29 11:40:26;;;;;;;13.60;7.82;;;;;;;9.88;59.82;92143.94;2075541;69;20160;-75
2021/12/29 11:42:53;;;;;;;12.33;7.80;;;;;;;9.91;60.13;92139.88;2075315;69;20164;-74
2021/12/29 11:45:19;;;;;;;12.15;7.85;;;;;;;10.06;60.06;92144.19;2075309;69;20362;-72
2021/12/29 11:47:45;;;;;;;11.25;7.30;;;;;;;10.01;60.36;92150.22;2075264;69;20151;-71